Time;durP1;ratioP1;P1;durP2;ratioP2;P2;SDS_P1;SDS_P2;PMS_P1;PMS_P2;Temp;Humidity;BMP_temperature;BMP_pressure;BME280_temperature;BME280_humidity;BME280_pressure;Samples;Min_cycle;Max_cycle;Signal;HPM_P1;HPM_P2
2021/12/10 00:01:36;;;;;;;14.27;7.30;;;;;;;;;;5095712;28;20055;-87
2021/12/10 00:04:05;;;;;;;11.32;6.43;;;;;;;;;;5108619;28;20044;-86
2021/12/10 00:06:33;;;;;;;13.82;7.65;;;;;;;;;;5099339;28;20060;-86
2021/12/10 00:09:04;;;;;;;13.07;7.13;;;;;;;;;;5095899;28;20078;-87
2021/12/10 00:11:36;;;;;;;20.08;7.18;;;;;;;;;;5097421;28;20075;-86
2021/12/10 00:14:04;;;;;;;16.73;7.53;;;;;;;;;;5095742;28;20067;-86
2021/12/10 00:16:30;;;;;;;10.75;6.32;;;;;;;;;;5090094;28;20075;-86
2021/12/10 00:19:11;;;;;;;12.63;7.20;;;;;;;;;;5098775;28;20044;-86
2021/12/10 00:21:38;;;;;;;9.85;5.93;;;;;;;;;;5098463;28;20133;-86
2021/12/10 00:24:05;;;;;;;13.38;7.15;;;;;;;;;;5091069;28;20071;-86
2021/12/10 00:26:32;;;;;;;14.07;7.18;;;;;;;;;;5100652;28;20052;-86
2021/12/10 00:29:03;;;;;;;12.98;6.18;;;;;;;;;;5100893;28;20098;-85
2021/12/10 00:31:44;;;;;;;12.00;7.30;;;;;;;;;;5098398;28;20094;-86
2021/12/10 00:34:17;;;;;;;13.40;6.00;;;;;;;;;;5097066;28;20461;-86
2021/12/10 00:36:44;;;;;;;11.73;6.05;;;;;;;;;;5099066;28;20044;-86
2021/12/10 00:39:23;;;;;;;15.80;6.55;;;;;;;;;;5098281;28;20090;-85
2021/12/10 00:41:50;;;;;;;11.48;6.32;;;;;;;;;;5102614;28;20071;-85
2021/12/10 00:44:17;;;;;;;10.77;5.95;;;;;;;;;;5105312;28;20047;-86
2021/12/10 00:46:44;;;;;;;12.95;6.32;;;;;;;;;;5098346;28;20068;-86
2021/12/10 00:49:12;;;;;;;9.77;5.50;;;;;;;;;;5096402;28;20150;-85
2021/12/10 00:51:39;;;;;;;12.02;5.78;;;;;;;;;;5102103;28;20071;-84
2021/12/10 00:54:08;;;;;;;9.75;5.30;;;;;;;;;;5112774;27;20047;-86
2021/12/10 00:56:35;;;;;;;13.60;5.85;;;;;;;;;;5100947;28;20067;-85
2021/12/10 00:59:02;;;;;;;9.02;5.10;;;;;;;;;;5095242;28;20075;-85
2021/12/10 01:01:32;;;;;;;12.60;5.65;;;;;;;;;;5094265;28;20083;-85
2021/12/10 01:04:04;;;;;;;8.93;5.43;;;;;;;;;;5098251;28;20055;-85
2021/12/10 01:06:33;;;;;;;11.10;5.88;;;;;;;;;;5099756;28;20133;-85
2021/12/10 01:09:05;;;;;;;8.02;5.20;;;;;;;;;;5100652;28;20400;-86
2021/12/10 01:11:35;;;;;;;7.32;3.97;;;;;;;;;;5100656;28;20086;-85
2021/12/10 01:14:15;;;;;;;8.88;4.65;;;;;;;;;;5100941;28;20044;-86
2021/12/10 01:25:38;;;;;;;10.38;5.22;;;;;;;;;;5095182;28;20092;-86
2021/12/10 01:28:06;;;;;;;10.25;4.18;;;;;;;;;;5099733;28;20040;-86
2021/12/10 01:30:37;;;;;;;8.57;4.60;;;;;;;;;;5099091;28;20097;-86
2021/12/10 01:33:07;;;;;;;12.13;4.75;;;;;;;;;;5102591;28;20100;-86
2021/12/10 01:35:36;;;;;;;8.80;4.43;;;;;;;;;;5096576;28;20043;-85
2021/12/10 01:38:05;;;;;;;9.00;4.60;;;;;;;;;;5090622;28;20048;-86
2021/12/10 01:40:34;;;;;;;8.95;4.30;;;;;;;;;;5098963;28;20044;-85
2021/12/10 01:43:07;;;;;;;11.43;4.30;;;;;;;;;;5098788;28;20048;-86
2021/12/10 01:45:40;;;;;;;6.57;3.70;;;;;;;;;;5097165;28;20070;-86
2021/12/10 01:48:11;;;;;;;7.32;4.03;;;;;;;;;;5103969;28;20051;-86
2021/12/10 01:50:38;;;;;;;7.53;3.75;;;;;;;;;;5099464;28;20067;-85
2021/12/10 01:53:08;;;;;;;7.00;4.07;;;;;;;;;;5098283;28;20062;-85
2021/12/10 01:55:37;;;;;;;6.85;3.70;;;;;;;;;;5104649;28;20075;-84
2021/12/10 01:58:07;;;;;;;8.00;4.03;;;;;;;;;;5101430;28;20109;-85
2021/12/10 02:00:35;;;;;;;6.20;3.22;;;;;;;;;;5097883;28;20075;-85
2021/12/10 02:03:02;;;;;;;9.88;3.05;;;;;;;;;;5099479;28;20044;-86
2021/12/10 02:05:28;;;;;;;7.05;3.58;;;;;;;;;;5107434;28;20067;-85
2021/12/10 02:07:55;;;;;;;6.63;4.00;;;;;;;;;;5100187;28;20036;-86
2021/12/10 02:10:24;;;;;;;9.73;4.88;;;;;;;;;;5099635;28;20040;-86
2021/12/10 02:12:51;;;;;;;9.63;3.60;;;;;;;;;;5101531;28;20298;-85
2021/12/10 02:15:21;;;;;;;6.45;3.15;;;;;;;;;;5098082;28;20093;-86
2021/12/10 02:17:50;;;;;;;5.72;2.85;;;;;;;;;;5106961;28;20123;-85
2021/12/10 02:20:20;;;;;;;6.13;3.00;;;;;;;;;;5110206;28;20044;-85
2021/12/10 02:22:49;;;;;;;7.63;3.00;;;;;;;;;;5096656;28;20109;-84
2021/12/10 02:25:21;;;;;;;7.28;3.35;;;;;;;;;;5096372;28;20048;-85
2021/12/10 02:27:48;;;;;;;5.78;3.10;;;;;;;;;;5100575;28;20046;-85
2021/12/10 02:30:17;;;;;;;8.88;2.92;;;;;;;;;;5105298;28;20101;-85
2021/12/10 02:32:44;;;;;;;8.43;4.05;;;;;;;;;;5101667;28;20104;-84
2021/12/10 02:35:12;;;;;;;7.38;3.88;;;;;;;;;;5100350;28;20071;-84
2021/12/10 02:37:39;;;;;;;9.68;4.50;;;;;;;;;;5101437;28;20056;-85
2021/12/10 02:40:09;;;;;;;8.05;4.20;;;;;;;;;;5100779;28;20044;-84
2021/12/10 02:42:37;;;;;;;7.43;3.42;;;;;;;;;;5100421;28;20131;-84
2021/12/10 02:45:05;;;;;;;6.97;3.45;;;;;;;;;;5102769;28;20048;-85
2021/12/10 02:47:31;;;;;;;8.93;3.95;;;;;;;;;;5100138;28;20044;-85
2021/12/10 02:49:58;;;;;;;8.85;4.07;;;;;;;;;;5110759;28;20079;-85
2021/12/10 02:52:26;;;;;;;7.88;4.47;;;;;;;;;;5101939;28;20044;-85
2021/12/10 02:54:53;;;;;;;8.57;4.32;;;;;;;;;;5108098;28;20044;-85
2021/12/10 02:57:21;;;;;;;9.02;4.13;;;;;;;;;;5098886;28;20048;-85
2021/12/10 02:59:48;;;;;;;7.82;3.78;;;;;;;;;;5093945;28;20056;-85
2021/12/10 03:02:18;;;;;;;8.13;3.92;;;;;;;;;;5097152;28;20052;-85
2021/12/10 03:04:44;;;;;;;10.15;4.45;;;;;;;;;;5098424;28;20121;-84
2021/12/10 03:07:14;;;;;;;7.32;4.03;;;;;;;;;;5101611;28;20090;-84
2021/12/10 03:09:43;;;;;;;13.73;4.45;;;;;;;;;;5099623;28;20059;-84
2021/12/10 03:12:11;;;;;;;9.93;4.45;;;;;;;;;;5097886;28;20489;-84
2021/12/10 03:14:42;;;;;;;16.17;7.80;;;;;;;;;;5102804;28;20534;-85
2021/12/10 03:17:18;;;;;;;14.50;8.50;;;;;;;;;;5098246;28;20489;-85
2021/12/10 03:19:45;;;;;;;17.05;7.40;;;;;;;;;;5101750;28;20044;-84
2021/12/10 03:22:12;;;;;;;18.98;8.27;;;;;;;;;;5101005;28;20052;-84
2021/12/10 03:24:38;;;;;;;16.02;7.65;;;;;;;;;;5098283;28;20044;-84
2021/12/10 03:27:10;;;;;;;13.50;5.85;;;;;;;;;;5099208;28;20044;-84
2021/12/10 03:29:42;;;;;;;13.68;5.68;;;;;;;;;;5098190;28;20067;-84
2021/12/10 03:32:12;;;;;;;14.30;6.13;;;;;;;;;;5103178;28;20732;-84
2021/12/10 03:34:40;;;;;;;7.22;2.60;;;;;;;;;;5108017;28;20090;-84
2021/12/10 03:37:08;;;;;;;6.78;2.05;;;;;;;;;;5095501;28;20036;-84
2021/12/10 03:39:36;;;;;;;4.25;1.95;;;;;;;;;;5095418;28;20550;-84
2021/12/10 03:42:05;;;;;;;7.80;2.85;;;;;;;;;;5096653;28;20164;-84
2021/12/10 03:44:34;;;;;;;8.82;3.30;;;;;;;;;;5095391;28;20197;-84
2021/12/10 03:47:05;;;;;;;5.65;1.80;;;;;;;;;;5095137;28;20076;-84
2021/12/10 03:49:32;;;;;;;9.07;2.60;;;;;;;;;;5096671;28;20086;-85
2021/12/10 03:51:59;;;;;;;4.82;1.98;;;;;;;;;;5095252;28;20063;-84
2021/12/10 03:54:29;;;;;;;3.97;1.52;;;;;;;;;;5096342;28;20492;-85
2021/12/10 03:56:58;;;;;;;5.03;1.67;;;;;;;;;;5097290;28;20040;-84
2021/12/10 03:59:26;;;;;;;8.10;2.13;;;;;;;;;;5103119;28;20040;-84
2021/12/10 04:01:55;;;;;;;5.43;1.70;;;;;;;;;;5094679;28;20636;-84
2021/12/10 04:04:27;;;;;;;4.80;2.10;;;;;;;;;;5094948;28;20536;-84
2021/12/10 04:06:56;;;;;;;4.82;1.63;;;;;;;;;;5096869;28;20416;-84
2021/12/10 04:09:24;;;;;;;4.50;2.03;;;;;;;;;;5100069;28;20468;-85
2021/12/10 04:11:52;;;;;;;8.38;4.15;;;;;;;;;;5091826;28;20075;-84
2021/12/10 04:14:19;;;;;;;4.97;2.08;;;;;;;;;;5093996;28;20117;-84
2021/12/10 04:16:53;;;;;;;5.38;2.20;;;;;;;;;;5097413;28;20650;-84
2021/12/10 04:19:23;;;;;;;9.18;2.08;;;;;;;;;;5094103;28;20050;-84
2021/12/10 04:21:55;;;;;;;3.65;1.83;;;;;;;;;;5098131;28;20147;-84
2021/12/10 04:24:24;;;;;;;6.25;2.17;;;;;;;;;;5091963;28;20066;-84
2021/12/10 04:26:52;;;;;;;5.85;2.53;;;;;;;;;;5085345;28;20071;-84
2021/12/10 04:29:21;;;;;;;4.70;2.15;;;;;;;;;;5094665;28;20116;-84
2021/12/10 04:31:49;;;;;;;5.93;1.95;;;;;;;;;;5090052;28;20119;-84
2021/12/10 04:34:16;;;;;;;5.97;2.33;;;;;;;;;;5103016;28;20153;-84
2021/12/10 04:36:44;;;;;;;6.63;2.00;;;;;;;;;;5094223;28;20052;-84
2021/12/10 04:39:13;;;;;;;3.63;1.60;;;;;;;;;;5093417;28;20067;-85
2021/12/10 04:41:40;;;;;;;4.97;1.52;;;;;;;;;;5095137;28;20059;-84
2021/12/10 04:44:07;;;;;;;4.55;1.70;;;;;;;;;;5105924;28;20040;-84
2021/12/10 04:46:35;;;;;;;6.57;1.42;;;;;;;;;;5101174;28;20068;-85
2021/12/10 04:49:05;;;;;;;4.25;1.63;;;;;;;;;;5095447;28;20588;-84
2021/12/10 04:51:37;;;;;;;2.90;1.50;;;;;;;;;;5095536;28;20072;-85
2021/12/10 04:54:05;;;;;;;5.70;1.48;;;;;;;;;;5094325;28;20147;-85
2021/12/10 04:56:35;;;;;;;7.30;1.77;;;;;;;;;;5096178;28;20063;-85
2021/12/10 04:59:05;;;;;;;9.57;2.00;;;;;;;;;;5103024;28;20082;-84
2021/12/10 05:01:33;;;;;;;4.38;1.83;;;;;;;;;;5091533;28;20055;-84
2021/12/10 05:04:02;;;;;;;5.45;1.77;;;;;;;;;;5088381;28;20055;-84
2021/12/10 05:06:29;;;;;;;6.13;1.50;;;;;;;;;;5090995;28;20043;-84
2021/12/10 05:08:59;;;;;;;3.58;1.63;;;;;;;;;;5091744;28;20688;-85
2021/12/10 05:11:26;;;;;;;5.32;2.13;;;;;;;;;;5096255;28;20044;-84
2021/12/10 05:13:56;;;;;;;10.38;2.38;;;;;;;;;;5104274;28;20047;-84
2021/12/10 05:16:26;;;;;;;6.20;1.60;;;;;;;;;;5097992;28;20044;-84
2021/12/10 05:18:57;;;;;;;5.25;1.70;;;;;;;;;;5097880;28;20071;-84
2021/12/10 05:21:27;;;;;;;5.03;1.83;;;;;;;;;;5096356;28;20407;-85
2021/12/10 05:23:55;;;;;;;5.97;2.40;;;;;;;;;;5096729;28;20070;-84
2021/12/10 05:26:22;;;;;;;3.85;1.85;;;;;;;;;;5096469;28;20063;-84
2021/12/10 05:28:49;;;;;;;5.80;2.42;;;;;;;;;;5091316;28;20070;-85
2021/12/10 05:31:21;;;;;;;3.65;1.70;;;;;;;;;;5098866;28;20072;-84
2021/12/10 05:33:49;;;;;;;5.07;2.33;;;;;;;;;;5100607;28;20378;-85
2021/12/10 05:36:16;;;;;;;7.03;2.50;;;;;;;;;;5094188;28;20051;-85
2021/12/10 05:38:44;;;;;;;3.45;1.63;;;;;;;;;;5094653;28;20117;-85
2021/12/10 05:41:12;;;;;;;4.57;2.03;;;;;;;;;;5104200;28;20377;-85
2021/12/10 05:43:41;;;;;;;5.50;1.98;;;;;;;;;;5102090;28;20044;-85
2021/12/10 05:46:10;;;;;;;6.78;3.58;;;;;;;;;;5099031;28;20048;-85
2021/12/10 05:48:39;;;;;;;4.38;2.67;;;;;;;;;;5094823;28;20093;-85
2021/12/10 05:51:07;;;;;;;4.03;1.98;;;;;;;;;;5095993;28;20101;-85
2021/12/10 05:53:34;;;;;;;3.90;2.00;;;;;;;;;;5098504;28;20072;-85
2021/12/10 05:56:04;;;;;;;4.35;2.42;;;;;;;;;;5097951;28;20044;-85
2021/12/10 05:58:33;;;;;;;4.57;2.28;;;;;;;;;;5098912;28;20051;-87
2021/12/10 06:01:04;;;;;;;7.03;3.03;;;;;;;;;;5094313;28;20047;-86
2021/12/10 06:03:32;;;;;;;4.32;2.20;;;;;;;;;;5102541;28;20131;-85
2021/12/10 06:06:02;;;;;;;13.52;4.53;;;;;;;;;;5098671;28;20404;-86
2021/12/10 06:08:30;;;;;;;18.10;6.30;;;;;;;;;;5099930;28;20040;-86
2021/12/10 06:11:02;;;;;;;10.32;4.60;;;;;;;;;;5106601;28;20055;-86
2021/12/10 06:13:30;;;;;;;6.68;3.40;;;;;;;;;;5100448;28;20048;-86
2021/12/10 06:15:58;;;;;;;7.22;3.65;;;;;;;;;;5084771;28;20052;-86
2021/12/10 06:18:25;;;;;;;9.38;3.75;;;;;;;;;;5100018;28;20040;-87
2021/12/10 06:20:56;;;;;;;7.53;3.20;;;;;;;;;;5106255;28;20047;-88
2021/12/10 06:23:27;;;;;;;4.78;2.38;;;;;;;;;;5106197;28;20045;-87
2021/12/10 06:25:55;;;;;;;7.55;3.78;;;;;;;;;;5106466;28;20043;-86
2021/12/10 06:28:22;;;;;;;8.68;3.22;;;;;;;;;;5113194;28;20490;-86
2021/12/10 06:30:54;;;;;;;11.30;4.20;;;;;;;;;;5097401;28;20085;-86
2021/12/10 06:33:23;;;;;;;14.25;7.47;;;;;;;;;;5098781;28;20400;-85
2021/12/10 06:35:52;;;;;;;13.00;6.60;;;;;;;;;;5094853;28;20052;-85
2021/12/10 06:38:22;;;;;;;12.90;6.72;;;;;;;;;;5104675;28;20407;-86
2021/12/10 06:40:53;;;;;;;17.08;8.32;;;;;;;;;;5105541;28;20075;-86
2021/12/10 06:43:21;;;;;;;18.10;7.13;;;;;;;;;;5094363;28;20062;-86
2021/12/10 06:45:48;;;;;;;9.73;4.93;;;;;;;;;;5096548;28;20044;-86
2021/12/10 06:48:16;;;;;;;6.05;3.75;;;;;;;;;;5096673;28;20519;-86
2021/12/10 06:50:49;;;;;;;6.88;3.15;;;;;;;;;;5077245;28;20042;-87
2021/12/10 06:53:19;;;;;;;8.18;2.78;;;;;;;;;;5093855;28;20044;-87
2021/12/10 06:55:46;;;;;;;13.77;3.00;;;;;;;;;;5092398;28;20047;-85
2021/12/10 06:58:17;;;;;;;7.88;3.15;;;;;;;;;;5092150;28;20075;-84
2021/12/10 07:00:46;;;;;;;5.72;2.75;;;;;;;;;;5093500;28;20048;-85
2021/12/10 07:03:14;;;;;;;8.40;3.10;;;;;;;;;;5091727;28;20062;-85
2021/12/10 07:05:44;;;;;;;19.35;4.45;;;;;;;;;;5072490;28;20044;-85
2021/12/10 07:08:13;;;;;;;6.45;4.75;;;;;;;;;;5085814;28;20040;-87
2021/12/10 07:10:40;;;;;;;5.88;3.42;;;;;;;;;;5099181;28;20071;-86
2021/12/10 07:13:08;;;;;;;9.18;3.90;;;;;;;;;;5092954;28;20109;-85
2021/12/10 07:15:41;;;;;;;6.32;2.67;;;;;;;;;;5096967;28;20068;-86
2021/12/10 07:18:09;;;;;;;7.88;2.45;;;;;;;;;;5084448;28;20050;-86
2021/12/10 07:20:38;;;;;;;5.97;2.33;;;;;;;;;;5095534;28;20039;-86
2021/12/10 07:23:05;;;;;;;5.50;2.38;;;;;;;;;;5088261;28;20082;-86
2021/12/10 07:25:33;;;;;;;3.88;2.42;;;;;;;;;;5094545;28;20117;-86
2021/12/10 07:28:01;;;;;;;4.80;2.00;;;;;;;;;;5096728;28;20102;-85
2021/12/10 07:30:30;;;;;;;5.32;2.17;;;;;;;;;;5088429;28;20433;-85
2021/12/10 07:33:00;;;;;;;5.70;2.20;;;;;;;;;;5096940;28;20098;-85
2021/12/10 07:35:27;;;;;;;3.72;2.03;;;;;;;;;;5094878;28;20080;-85
2021/12/10 07:37:55;;;;;;;10.38;2.38;;;;;;;;;;5097912;28;20044;-85
2021/12/10 07:40:24;;;;;;;12.43;5.70;;;;;;;;;;5093279;28;20047;-85
2021/12/10 07:42:52;;;;;;;15.93;4.82;;;;;;;;;;5092283;28;20040;-84
2021/12/10 07:45:19;;;;;;;9.43;3.58;;;;;;;;;;5086737;28;20125;-85
2021/12/10 07:47:51;;;;;;;7.30;3.97;;;;;;;;;;5094244;28;20052;-85
2021/12/10 07:50:23;;;;;;;9.85;4.07;;;;;;;;;;5084334;28;20759;-87
2021/12/10 07:52:55;;;;;;;11.43;2.78;;;;;;;;;;5069957;28;20094;-86
2021/12/10 07:55:24;;;;;;;5.13;2.60;;;;;;;;;;5090892;28;20044;-86
2021/12/10 07:57:52;;;;;;;7.50;2.90;;;;;;;;;;5098384;28;20044;-85
2021/12/10 08:00:24;;;;;;;7.65;2.83;;;;;;;;;;5095635;28;20347;-85
2021/12/10 08:02:51;;;;;;;6.85;2.40;;;;;;;;;;5095501;28;20112;-85
2021/12/10 08:05:23;;;;;;;7.22;2.28;;;;;;;;;;5093192;28;20098;-87
2021/12/10 08:07:51;;;;;;;4.38;2.10;;;;;;;;;;5095637;28;20082;-86
2021/12/10 08:10:19;;;;;;;3.08;1.95;;;;;;;;;;5095717;28;20044;-86
2021/12/10 08:12:47;;;;;;;4.13;2.78;;;;;;;;;;5095874;28;20069;-86
2021/12/10 08:15:16;;;;;;;5.82;1.98;;;;;;;;;;5096125;28;20052;-88
2021/12/10 08:17:46;;;;;;;3.50;2.03;;;;;;;;;;5095354;28;20070;-86
2021/12/10 08:20:18;;;;;;;7.32;2.90;;;;;;;;;;5082091;28;20058;-87
2021/12/10 08:22:49;;;;;;;10.90;4.55;;;;;;;;;;5092102;28;20108;-85
2021/12/10 08:25:16;;;;;;;7.53;5.00;;;;;;;;;;5097928;28;20400;-85
2021/12/10 08:27:44;;;;;;;8.48;4.45;;;;;;;;;;5090944;28;20097;-86
2021/12/10 08:30:14;;;;;;;8.40;4.97;;;;;;;;;;5095352;28;20235;-86
2021/12/10 08:32:43;;;;;;;12.63;5.10;;;;;;;;;;5094824;28;20134;-86
2021/12/10 08:35:12;;;;;;;8.68;4.10;;;;;;;;;;5097266;28;20047;-87
2021/12/10 08:37:40;;;;;;;6.53;3.80;;;;;;;;;;5099232;28;20120;-87
2021/12/10 08:40:16;;;;;;;7.38;3.13;;;;;;;;;;5103389;28;20098;-88
2021/12/10 08:42:52;;;;;;;7.60;3.03;;;;;;;;;;5093186;28;20385;-88
2021/12/10 08:45:27;;;;;;;8.70;4.47;;;;;;;;;;5094077;28;20072;-87
2021/12/10 08:47:56;;;;;;;13.15;3.83;;;;;;;;;;5092625;28;20048;-87
2021/12/10 08:50:27;;;;;;;4.07;2.05;;;;;;;;;;5092976;28;20040;-88
2021/12/10 08:52:57;;;;;;;5.43;2.40;;;;;;;;;;5097730;28;20043;-89
2021/12/10 08:55:26;;;;;;;7.57;2.97;;;;;;;;;;5098228;28;20518;-89
2021/12/10 08:57:54;;;;;;;6.80;3.03;;;;;;;;;;5096423;28;20048;-89
2021/12/10 09:00:22;;;;;;;5.85;2.38;;;;;;;;;;5088910;28;20052;-88
2021/12/10 09:02:50;;;;;;;6.22;2.47;;;;;;;;;;5094983;28;20090;-89
2021/12/10 09:05:18;;;;;;;7.63;2.33;;;;;;;;;;5088693;28;20048;-88
2021/12/10 09:07:46;;;;;;;5.35;3.20;;;;;;;;;;5096005;28;20082;-88
2021/12/10 09:10:14;;;;;;;6.80;3.60;;;;;;;;;;5099527;28;20081;-87
2021/12/10 09:12:44;;;;;;;7.28;3.20;;;;;;;;;;5096002;28;20040;-90
2021/12/10 09:15:16;;;;;;;5.78;3.47;;;;;;;;;;5091353;28;20044;-88
2021/12/10 09:17:44;;;;;;;9.55;4.60;;;;;;;;;;5095014;28;20055;-88
2021/12/10 09:20:20;;;;;;;5.22;2.70;;;;;;;;;;5095328;28;20052;-89
2021/12/10 09:22:49;;;;;;;;;;;;;;;;;;5087600;28;20117;-88
2021/12/10 09:25:17;;;;;;;4.85;2.67;;;;;;;;;;5087190;28;20376;-90
2021/12/10 09:27:47;;;;;;;5.15;3.45;;;;;;;;;;5098763;28;20446;-88
2021/12/10 09:30:18;;;;;;;9.45;3.85;;;;;;;;;;5094262;28;20048;-88
2021/12/10 09:32:46;;;;;;;6.75;3.13;;;;;;;;;;5070868;28;20056;-89
2021/12/10 09:35:17;;;;;;;7.88;3.45;;;;;;;;;;5079801;28;20460;-88
2021/12/10 09:37:45;;;;;;;5.07;2.95;;;;;;;;;;5093427;28;20109;-89
2021/12/10 09:40:17;;;;;;;6.93;4.05;;;;;;;;;;5085821;28;20593;-89
2021/12/10 09:42:50;;;;;;;7.90;3.85;;;;;;;;;;5094198;28;20048;-87
2021/12/10 09:45:22;;;;;;;8.63;3.42;;;;;;;;;;5092746;28;20102;-88
2021/12/10 09:47:51;;;;;;;5.93;3.13;;;;;;;;;;5089850;28;20063;-87
2021/12/10 09:50:22;;;;;;;5.00;2.35;;;;;;;;;;5094128;28;20093;-89
2021/12/10 09:52:49;;;;;;;6.80;4.07;;;;;;;;;;5093501;28;20055;-87
2021/12/10 09:55:18;;;;;;;10.77;3.90;;;;;;;;;;5094948;28;20044;-87
2021/12/10 09:57:54;;;;;;;15.02;4.30;;;;;;;;;;5098027;28;20066;-88
2021/12/10 10:00:25;;;;;;;5.68;2.60;;;;;;;;;;5097695;28;20071;-89
2021/12/10 10:02:53;;;;;;;3.70;2.08;;;;;;;;;;5095607;28;20119;-88
2021/12/10 10:05:26;;;;;;;3.75;1.90;;;;;;;;;;5081304;28;20098;-87
2021/12/10 10:07:54;;;;;;;5.03;2.15;;;;;;;;;;5097674;28;20447;-87
2021/12/10 10:10:23;;;;;;;4.70;2.15;;;;;;;;;;5094715;28;20059;-88
2021/12/10 10:12:56;;;;;;;5.70;2.30;;;;;;;;;;5096302;28;20044;-88
2021/12/10 10:15:25;;;;;;;5.95;2.10;;;;;;;;;;5086463;28;20061;-86
2021/12/10 10:17:53;;;;;;;4.50;2.35;;;;;;;;;;5093733;28;20500;-85
2021/12/10 10:20:21;;;;;;;6.90;2.42;;;;;;;;;;5097070;28;20103;-88
2021/12/10 10:22:49;;;;;;;5.18;2.22;;;;;;;;;;5093653;28;20044;-87
2021/12/10 10:25:20;;;;;;;6.78;2.53;;;;;;;;;;5084509;28;20098;-88
2021/12/10 10:27:48;;;;;;;5.25;2.80;;;;;;;;;;5093015;28;20466;-87
2021/12/10 10:30:22;;;;;;;6.65;2.72;;;;;;;;;;5093899;28;20063;-88
2021/12/10 10:32:51;;;;;;;4.90;2.60;;;;;;;;;;5093150;28;20090;-87
2021/12/10 10:35:22;;;;;;;7.75;2.60;;;;;;;;;;5091529;28;20048;-87
2021/12/10 10:37:50;;;;;;;4.88;2.35;;;;;;;;;;5095210;28;20075;-86
2021/12/10 10:40:21;;;;;;;5.97;3.05;;;;;;;;;;5097649;28;20048;-87
2021/12/10 10:42:50;;;;;;;4.38;1.90;;;;;;;;;;5092385;28;20492;-86
2021/12/10 10:45:23;;;;;;;7.07;2.63;;;;;;;;;;5096258;28;20052;-86
2021/12/10 10:47:51;;;;;;;4.38;2.08;;;;;;;;;;5095721;28;20070;-86
2021/12/10 10:50:26;;;;;;;5.10;2.30;;;;;;;;;;5103250;28;20072;-86
2021/12/10 10:52:56;;;;;;;4.72;2.15;;;;;;;;;;5092552;28;20040;-86
2021/12/10 10:55:26;;;;;;;4.40;2.20;;;;;;;;;;5097322;28;20048;-86
2021/12/10 10:57:56;;;;;;;3.92;2.38;;;;;;;;;;5094972;28;20067;-86
2021/12/10 11:00:32;;;;;;;6.53;2.97;;;;;;;;;;5093140;28;20071;-84
2021/12/10 11:06:12;;;;;;;3.95;2.28;;;;;;;;;;5058481;28;20158;-83
2021/12/10 11:08:42;;;;;;;3.55;2.00;;;;;;;;;;5096557;28;20044;-84
2021/12/10 11:11:15;;;;;;;7.30;1.90;;;;;;;;;;5097229;28;20109;-85
2021/12/10 11:13:44;;;;;;;5.32;1.92;;;;;;;;;;5098367;28;20052;-85
2021/12/10 11:16:18;;;;;;;4.07;2.05;;;;;;;;;;5098613;28;20044;-85
2021/12/10 11:18:50;;;;;;;4.78;1.90;;;;;;;;;;5098173;28;20127;-85
2021/12/10 11:21:20;;;;;;;4.82;1.85;;;;;;;;;;5103892;28;20446;-85
2021/12/10 11:23:47;;;;;;;4.38;1.65;;;;;;;;;;5117102;28;20546;-86
2021/12/10 11:26:15;;;;;;;2.70;1.70;;;;;;;;;;5086043;28;20067;-84
2021/12/10 11:28:43;;;;;;;7.70;2.15;;;;;;;;;;5103542;28;20044;-84
2021/12/10 11:31:15;;;;;;;4.57;2.25;;;;;;;;;;5098724;28;20094;-84
2021/12/10 11:33:49;;;;;;;4.03;2.22;;;;;;;;;;5100800;28;20067;-84
2021/12/10 11:36:18;;;;;;;4.55;2.20;;;;;;;;;;5088293;28;20090;-86
2021/12/10 11:38:46;;;;;;;4.38;2.05;;;;;;;;;;5102236;28;20070;-86
2021/12/10 11:41:17;;;;;;;5.03;1.90;;;;;;;;;;5098346;28;20503;-86
2021/12/10 11:43:56;;;;;;;4.13;1.80;;;;;;;;;;5097600;28;20048;-86
2021/12/10 11:46:47;;;;;;;4.10;1.90;;;;;;;;;;5100580;28;20046;-85
2021/12/10 11:49:22;;;;;;;4.20;2.35;;;;;;;;;;5096754;28;20063;-85
2021/12/10 11:51:55;;;;;;;5.35;2.38;;;;;;;;;;5102338;28;20125;-85
2021/12/10 11:54:34;;;;;;;5.00;2.17;;;;;;;;;;5098628;28;20078;-88
2021/12/10 11:57:04;;;;;;;3.45;2.00;;;;;;;;;;5097326;28;20046;-86
2021/12/10 11:59:33;;;;;;;6.50;2.28;;;;;;;;;;5097237;28;20870;-85
2021/12/10 12:02:05;;;;;;;5.22;1.75;;;;;;;;;;5099721;28;20510;-87
2021/12/10 12:04:35;;;;;;;4.85;2.13;;;;;;;;;;5094260;28;20048;-88
2021/12/10 12:07:42;;;;;;;8.77;2.25;;;;;;;;;;5100051;28;20052;-88
2021/12/10 12:10:18;;;;;;;5.55;1.98;;;;;;;;;;5097937;28;20043;-85
2021/12/10 12:12:47;;;;;;;10.02;3.08;;;;;;;;;;5095910;28;20055;-85
2021/12/10 12:15:23;;;;;;;6.70;2.80;;;;;;;;;;5097556;28;20078;-84
2021/12/10 12:17:54;;;;;;;3.45;2.00;;;;;;;;;;5100470;28;20546;-84
2021/12/10 12:20:32;;;;;;;5.28;2.35;;;;;;;;;;5102650;28;20056;-84
2021/12/10 12:25:52;;;;;;;6.75;3.58;;;;;;;;;;5099665;28;20054;-84
2021/12/10 12:28:22;;;;;;;7.10;3.30;;;;;;;;;;5090504;28;20067;-84
2021/12/10 12:30:54;;;;;;;3.72;2.40;;;;;;;;;;5085781;28;20101;-84
2021/12/10 12:33:25;;;;;;;3.65;2.00;;;;;;;;;;5096585;28;20040;-83
2021/12/10 12:35:53;;;;;;;5.82;2.78;;;;;;;;;;5093338;28;20105;-84
2021/12/10 12:38:25;;;;;;;4.45;2.10;;;;;;;;;;5095231;28;20588;-83
2021/12/10 12:41:07;;;;;;;4.53;2.10;;;;;;;;;;5094823;28;20485;-84
2021/12/10 12:43:34;;;;;;;4.72;2.45;;;;;;;;;;5098780;28;20047;-84
2021/12/10 12:46:05;;;;;;;4.43;2.38;;;;;;;;;;5094543;28;20079;-84
2021/12/10 12:48:33;;;;;;;5.82;2.70;;;;;;;;;;5092589;28;20062;-83
2021/12/10 12:51:02;;;;;;;4.18;2.20;;;;;;;;;;5093259;28;20458;-84
2021/12/10 12:53:33;;;;;;;3.63;2.10;;;;;;;;;;5092261;28;20117;-84
2021/12/10 12:56:05;;;;;;;15.95;2.10;;;;;;;;;;5092732;28;20075;-84
2021/12/10 12:58:37;;;;;;;5.38;1.90;;;;;;;;;;5092150;28;20052;-84
2021/12/10 13:01:09;;;;;;;4.25;2.30;;;;;;;;;;5103599;28;20044;-84
2021/12/10 13:03:41;;;;;;;4.63;2.10;;;;;;;;;;5092517;28;20067;-84
2021/12/10 13:06:12;;;;;;;7.35;2.17;;;;;;;;;;5092688;28;20105;-83
2021/12/10 13:08:42;;;;;;;11.85;3.13;;;;;;;;;;5092245;28;20470;-84
2021/12/10 13:11:14;;;;;;;11.77;4.15;;;;;;;;;;5093292;28;20048;-84
2021/12/10 13:13:45;;;;;;;6.75;2.45;;;;;;;;;;5093110;28;20499;-83
2021/12/10 13:16:13;;;;;;;4.20;2.10;;;;;;;;;;5093044;28;20098;-83
2021/12/10 13:18:43;;;;;;;3.70;1.85;;;;;;;;;;5094585;28;20044;-83
2021/12/10 13:21:13;;;;;;;4.63;1.65;;;;;;;;;;5093956;28;20044;-83
2021/12/10 13:23:40;;;;;;;2.95;1.73;;;;;;;;;;5094763;28;20052;-84
2021/12/10 13:26:09;;;;;;;2.97;1.75;;;;;;;;;;5095378;28;20044;-85
2021/12/10 13:28:36;;;;;;;2.22;1.30;;;;;;;;;;5095965;28;20078;-84
2021/12/10 13:31:06;;;;;;;6.20;1.70;;;;;;;;;;5096494;28;20450;-83
2021/12/10 13:33:35;;;;;;;9.18;2.03;;;;;;;;;;5093725;28;20072;-83
2021/12/10 13:36:05;;;;;;;3.35;1.75;;;;;;;;;;5094030;28;20096;-83
2021/12/10 13:38:33;;;;;;;5.63;1.95;;;;;;;;;;5094085;28;20055;-84
2021/12/10 13:41:01;;;;;;;3.42;1.90;;;;;;;;;;5093855;28;20040;-84
2021/12/10 13:43:29;;;;;;;4.35;2.05;;;;;;;;;;5093554;28;20105;-83
2021/12/10 13:46:07;;;;;;;11.57;2.60;;;;;;;;;;5091932;28;20127;-83
2021/12/10 13:48:41;;;;;;;6.22;2.42;;;;;;;;;;5092184;28;20079;-83
2021/12/10 13:51:16;;;;;;;9.57;2.60;;;;;;;;;;5092975;28;20123;-83
2021/12/10 13:53:58;;;;;;;7.07;2.83;;;;;;;;;;5091672;28;20089;-84
2021/12/10 13:56:24;;;;;;;3.63;1.90;;;;;;;;;;5089319;28;20083;-83
2021/12/10 13:58:54;;;;;;;5.13;1.95;;;;;;;;;;5092858;28;20083;-83
2021/12/10 14:01:22;;;;;;;7.43;2.30;;;;;;;;;;5092180;28;20080;-84
2021/12/10 14:03:53;;;;;;;15.82;4.70;;;;;;;;;;5093305;28;20048;-84
2021/12/10 14:06:34;;;;;;;8.65;4.65;;;;;;;;;;5092982;28;20044;-83
2021/12/10 14:09:16;;;;;;;14.10;6.80;;;;;;;;;;5093560;28;20048;-83
2021/12/10 14:11:56;;;;;;;9.30;4.90;;;;;;;;;;5093784;28;20055;-84
2021/12/10 14:14:30;;;;;;;8.38;4.28;;;;;;;;;;5092937;28;20455;-84
2021/12/10 14:16:59;;;;;;;11.07;3.55;;;;;;;;;;5091726;28;20074;-84
2021/12/10 14:19:33;;;;;;;5.55;2.90;;;;;;;;;;5091777;28;20047;-84
2021/12/10 14:22:02;;;;;;;5.95;3.38;;;;;;;;;;5091521;28;20040;-84
2021/12/10 14:24:40;;;;;;;5.35;2.67;;;;;;;;;;5094288;28;20436;-84
2021/12/10 14:27:11;;;;;;;5.97;2.90;;;;;;;;;;5090391;28;20048;-84
2021/12/10 14:29:38;;;;;;;7.70;3.65;;;;;;;;;;5095648;28;20082;-84
2021/12/10 14:32:19;;;;;;;6.30;3.50;;;;;;;;;;5095436;28;20048;-83
2021/12/10 14:35:05;;;;;;;7.43;3.67;;;;;;;;;;5094997;28;20580;-83
2021/12/10 14:37:50;;;;;;;6.73;3.97;;;;;;;;;;5095657;28;20082;-83
2021/12/10 14:40:17;;;;;;;6.88;3.75;;;;;;;;;;5095616;28;20453;-83
2021/12/10 14:43:07;;;;;;;7.15;3.95;;;;;;;;;;5095620;28;20079;-83
2021/12/10 14:45:34;;;;;;;7.20;3.75;;;;;;;;;;5094727;28;20043;-83
2021/12/10 14:48:08;;;;;;;9.80;4.95;;;;;;;;;;5095178;28;20072;-83
2021/12/10 14:50:35;;;;;;;8.10;3.88;;;;;;;;;;5096598;28;20519;-85
2021/12/10 14:53:26;;;;;;;10.55;4.38;;;;;;;;;;5094770;28;20040;-83
2021/12/10 14:55:53;;;;;;;6.32;3.97;;;;;;;;;;5092784;28;20485;-83
2021/12/10 14:58:21;;;;;;;6.70;3.47;;;;;;;;;;5095277;28;20052;-83
2021/12/10 15:00:49;;;;;;;6.95;3.50;;;;;;;;;;5094484;28;20055;-83
2021/12/10 15:03:18;;;;;;;7.15;4.85;;;;;;;;;;5094667;28;20052;-83
2021/12/10 15:05:48;;;;;;;7.72;4.50;;;;;;;;;;5095588;28;20079;-83
2021/12/10 15:08:35;;;;;;;7.82;5.20;;;;;;;;;;5095604;28;20056;-83
2021/12/10 15:11:04;;;;;;;6.65;4.13;;;;;;;;;;5090305;28;20135;-83
2021/12/10 15:13:33;;;;;;;8.45;4.38;;;;;;;;;;5094860;28;20366;-83